sensor_id;sensor_type;location;lat;lon;timestamp;pressure;altitude;pressure_sealevel;temperature
27826;BMP280;15077;49.704;9.908;2023-05-10T00:00:16;97412.78;;;20.68
27826;BMP280;15077;49.704;9.908;2023-05-10T00:02:42;97410.19;;;20.68
27826;BMP280;15077;49.704;9.908;2023-05-10T00:05:08;97403.56;;;20.66
27826;BMP280;15077;49.704;9.908;2023-05-10T00:07:34;97409.50;;;20.66
27826;BMP280;15077;49.704;9.908;2023-05-10T00:10:02;97401.13;;;20.64
27826;BMP280;15077;49.704;9.908;2023-05-10T00:12:28;97408.16;;;20.62
27826;BMP280;15077;49.704;9.908;2023-05-10T00:14:55;97400.97;;;20.56
27826;BMP280;15077;49.704;9.908;2023-05-10T00:17:22;97393.81;;;20.50
27826;BMP280;15077;49.704;9.908;2023-05-10T00:19:47;97395.72;;;20.48
27826;BMP280;15077;49.704;9.908;2023-05-10T00:22:14;97407.09;;;20.46
27826;BMP280;15077;49.704;9.908;2023-05-10T00:24:40;97405.63;;;20.44
27826;BMP280;15077;49.704;9.908;2023-05-10T00:27:05;97401.72;;;20.40
27826;BMP280;15077;49.704;9.908;2023-05-10T00:29:31;97394.53;;;20.34
27826;BMP280;15077;49.704;9.908;2023-05-10T00:32:00;97396.59;;;20.30
27826;BMP280;15077;49.704;9.908;2023-05-10T00:34:28;97391.16;;;20.24
27826;BMP280;15077;49.704;9.908;2023-05-10T00:36:54;97397.50;;;20.20
27826;BMP280;15077;49.704;9.908;2023-05-10T00:39:20;97395.22;;;20.17
27826;BMP280;15077;49.704;9.908;2023-05-10T00:41:46;97391.97;;;20.15
27826;BMP280;15077;49.704;9.908;2023-05-10T00:44:12;97392.25;;;20.12
27826;BMP280;15077;49.704;9.908;2023-05-10T00:46:38;97398.63;;;20.08
27826;BMP280;15077;49.704;9.908;2023-05-10T00:49:06;97394.00;;;20.02
27826;BMP280;15077;49.704;9.908;2023-05-10T00:51:33;97401.19;;;19.98
27826;BMP280;15077;49.704;9.908;2023-05-10T00:53:59;97394.28;;;19.99
27826;BMP280;15077;49.704;9.908;2023-05-10T00:56:26;97392.69;;;19.98
27826;BMP280;15077;49.704;9.908;2023-05-10T00:58:52;97398.75;;;19.97
27826;BMP280;15077;49.704;9.908;2023-05-10T01:01:24;97391.97;;;19.96
27826;BMP280;15077;49.704;9.908;2023-05-10T01:03:50;97397.41;;;19.93
27826;BMP280;15077;49.704;9.908;2023-05-10T01:06:16;97395.66;;;19.94
27826;BMP280;15077;49.704;9.908;2023-05-10T01:08:42;97395.66;;;19.94
27826;BMP280;15077;49.704;9.908;2023-05-10T01:11:08;97401.75;;;19.93
27826;BMP280;15077;49.704;9.908;2023-05-10T01:13:39;97395.81;;;19.92
27826;BMP280;15077;49.704;9.908;2023-05-10T01:16:09;97405.53;;;19.89
27826;BMP280;15077;49.704;9.908;2023-05-10T01:18:42;97399.81;;;19.85
27826;BMP280;15077;49.704;9.908;2023-05-10T01:21:56;97404.00;;;19.77
27826;BMP280;15077;49.704;9.908;2023-05-10T01:25:02;97402.22;;;19.68
27826;BMP280;15077;49.704;9.908;2023-05-10T01:28:17;97405.34;;;19.62
27826;BMP280;15077;49.704;9.908;2023-05-10T01:33:59;97407.63;;;19.55
27826;BMP280;15077;49.704;9.908;2023-05-10T01:36:51;97415.75;;;19.51
27826;BMP280;15077;49.704;9.908;2023-05-10T01:39:56;97410.81;;;19.39
27826;BMP280;15077;49.704;9.908;2023-05-10T01:42:30;97420.84;;;19.42
27826;BMP280;15077;49.704;9.908;2023-05-10T01:45:49;97419.72;;;19.35
27826;BMP280;15077;49.704;9.908;2023-05-10T01:48:20;97418.81;;;19.36
27826;BMP280;15077;49.704;9.908;2023-05-10T01:50:51;97420.56;;;19.35
27826;BMP280;15077;49.704;9.908;2023-05-10T01:53:21;97429.22;;;19.34
27826;BMP280;15077;49.704;9.908;2023-05-10T01:55:53;97420.84;;;19.32
27826;BMP280;15077;49.704;9.908;2023-05-10T01:58:30;97426.22;;;19.29
27826;BMP280;15077;49.704;9.908;2023-05-10T02:01:03;97427.97;;;19.29
27826;BMP280;15077;49.704;9.908;2023-05-10T02:03:32;97429.19;;;19.25
27826;BMP280;15077;49.704;9.908;2023-05-10T02:06:01;97433.63;;;19.23
27826;BMP280;15077;49.704;9.908;2023-05-10T02:08:31;97427.03;;;19.20
27826;BMP280;15077;49.704;9.908;2023-05-10T02:11:06;97429.72;;;19.19
27826;BMP280;15077;49.704;9.908;2023-05-10T02:13:35;97435.78;;;19.18
27826;BMP280;15077;49.704;9.908;2023-05-10T02:16:05;97440.25;;;19.16
27826;BMP280;15077;49.704;9.908;2023-05-10T02:18:34;97443.75;;;19.15
27826;BMP280;15077;49.704;9.908;2023-05-10T02:21:02;97445.78;;;19.11
27826;BMP280;15077;49.704;9.908;2023-05-10T02:23:30;97439.94;;;19.09
27826;BMP280;15077;49.704;9.908;2023-05-10T02:26:00;97442.63;;;19.08
27826;BMP280;15077;49.704;9.908;2023-05-10T02:28:29;97447.78;;;19.08
27826;BMP280;15077;49.704;9.908;2023-05-10T02:30:59;97454.00;;;19.05
27826;BMP280;15077;49.704;9.908;2023-05-10T02:33:29;97459.25;;;19.04
27826;BMP280;15077;49.704;9.908;2023-05-10T02:35:56;97461.13;;;19.02
27826;BMP280;15077;49.704;9.908;2023-05-10T02:38:26;97470.69;;;19.00
27826;BMP280;15077;49.704;9.908;2023-05-10T02:40:55;97464.75;;;18.99
27826;BMP280;15077;49.704;9.908;2023-05-10T02:43:24;97463.13;;;18.98
27826;BMP280;15077;49.704;9.908;2023-05-10T02:45:53;97470.28;;;18.95
27826;BMP280;15077;49.704;9.908;2023-05-10T02:48:19;97472.25;;;18.92
27826;BMP280;15077;49.704;9.908;2023-05-10T02:50:46;97470.78;;;18.89
27826;BMP280;15077;49.704;9.908;2023-05-10T02:53:31;97472.91;;;18.84
27826;BMP280;15077;49.704;9.908;2023-05-10T02:56:04;97474.09;;;18.80
27826;BMP280;15077;49.704;9.908;2023-05-10T02:58:33;97471.91;;;18.76
27826;BMP280;15077;49.704;9.908;2023-05-10T03:01:01;97469.59;;;18.73
27826;BMP280;15077;49.704;9.908;2023-05-10T03:03:27;97471.59;;;18.69
27826;BMP280;15077;49.704;9.908;2023-05-10T03:05:55;97476.97;;;18.66
27826;BMP280;15077;49.704;9.908;2023-05-10T03:08:23;97477.91;;;18.65
27826;BMP280;15077;49.704;9.908;2023-05-10T03:11:16;97472.59;;;18.57
27826;BMP280;15077;49.704;9.908;2023-05-10T03:17:13;97479.63;;;18.55
27826;BMP280;15077;49.704;9.908;2023-05-10T03:19:58;97483.13;;;18.54
27826;BMP280;15077;49.704;9.908;2023-05-10T03:22:44;97479.88;;;18.52
27826;BMP280;15077;49.704;9.908;2023-05-10T03:25:12;97485.25;;;18.49
27826;BMP280;15077;49.704;9.908;2023-05-10T03:27:43;97484.53;;;18.48
27826;BMP280;15077;49.704;9.908;2023-05-10T03:30:11;97487.13;;;18.48
27826;BMP280;15077;49.704;9.908;2023-05-10T03:32:38;97491.56;;;18.46
27826;BMP280;15077;49.704;9.908;2023-05-10T03:35:09;97491.56;;;18.46
27826;BMP280;15077;49.704;9.908;2023-05-10T03:37:37;97496.09;;;18.42
27826;BMP280;15077;49.704;9.908;2023-05-10T03:40:04;97495.31;;;18.42
27826;BMP280;15077;49.704;9.908;2023-05-10T03:42:30;97494.63;;;18.40
27826;BMP280;15077;49.704;9.908;2023-05-10T03:44:58;97500.69;;;18.39
27826;BMP280;15077;49.704;9.908;2023-05-10T03:47:25;97501.63;;;18.38
27826;BMP280;15077;49.704;9.908;2023-05-10T03:49:50;97510.50;;;18.34
27826;BMP280;15077;49.704;9.908;2023-05-10T03:52:19;97508.88;;;18.33
27826;BMP280;15077;49.704;9.908;2023-05-10T03:54:45;97514.25;;;18.30
27826;BMP280;15077;49.704;9.908;2023-05-10T03:57:10;97516.94;;;18.28
27826;BMP280;15077;49.704;9.908;2023-05-10T03:59:36;97529.88;;;18.27
27826;BMP280;15077;49.704;9.908;2023-05-10T04:02:02;97521.50;;;18.25
27826;BMP280;15077;49.704;9.908;2023-05-10T04:04:28;97521.50;;;18.25
27826;BMP280;15077;49.704;9.908;2023-05-10T04:06:54;97527.69;;;18.22
27826;BMP280;15077;49.704;9.908;2023-05-10T04:09:20;97523.13;;;18.26
27826;BMP280;15077;49.704;9.908;2023-05-10T04:11:46;97529.22;;;18.25
27826;BMP280;15077;49.704;9.908;2023-05-10T04:14:12;97529.44;;;18.22
27826;BMP280;15077;49.704;9.908;2023-05-10T04:16:37;97524.56;;;18.19
27826;BMP280;15077;49.704;9.908;2023-05-10T04:19:03;97532.25;;;18.19
27826;BMP280;15077;49.704;9.908;2023-05-10T04:21:29;97530.63;;;18.18
27826;BMP280;15077;49.704;9.908;2023-05-10T04:23:55;97540.06;;;18.17
27826;BMP280;15077;49.704;9.908;2023-05-10T04:26:21;97539.34;;;18.15
27826;BMP280;15077;49.704;9.908;2023-05-10T04:28:47;97537.63;;;18.16
27826;BMP280;15077;49.704;9.908;2023-05-10T04:31:13;97540.41;;;18.13
27826;BMP280;15077;49.704;9.908;2023-05-10T04:33:38;97546.25;;;18.15
27826;BMP280;15077;49.704;9.908;2023-05-10T04:36:05;97547.06;;;18.15
27826;BMP280;15077;49.704;9.908;2023-05-10T04:38:31;97549.63;;;18.15
27826;BMP280;15077;49.704;9.908;2023-05-10T04:41:10;97544.63;;;18.14
27826;BMP280;15077;49.704;9.908;2023-05-10T04:43:37;97550.66;;;18.13
27826;BMP280;15077;49.704;9.908;2023-05-10T04:46:04;97556.72;;;18.12
27826;BMP280;15077;49.704;9.908;2023-05-10T04:48:30;97555.78;;;18.13
27826;BMP280;15077;49.704;9.908;2023-05-10T04:50:56;97552.50;;;18.11
27826;BMP280;15077;49.704;9.908;2023-05-10T04:53:22;97559.28;;;18.12
27826;BMP280;15077;49.704;9.908;2023-05-10T04:55:48;97562.66;;;18.12
27826;BMP280;15077;49.704;9.908;2023-05-10T04:58:14;97558.34;;;18.13
27826;BMP280;15077;49.704;9.908;2023-05-10T05:00:40;97556.72;;;18.12
27826;BMP280;15077;49.704;9.908;2023-05-10T05:03:06;97572.09;;;18.12
27826;BMP280;15077;49.704;9.908;2023-05-10T05:05:31;97563.72;;;18.10
27826;BMP280;15077;49.704;9.908;2023-05-10T05:07:57;97566.41;;;18.08
27826;BMP280;15077;49.704;9.908;2023-05-10T05:10:23;97564.78;;;18.07
27826;BMP280;15077;49.704;9.908;2023-05-10T05:12:48;97561.41;;;18.07
27826;BMP280;15077;49.704;9.908;2023-05-10T05:15:14;97562.09;;;18.09
27826;BMP280;15077;49.704;9.908;2023-05-10T05:17:43;97562.09;;;18.09
27826;BMP280;15077;49.704;9.908;2023-05-10T05:20:09;97564.53;;;18.10
27826;BMP280;15077;49.704;9.908;2023-05-10T05:22:38;97568.75;;;18.11
27826;BMP280;15077;49.704;9.908;2023-05-10T05:25:05;97574.66;;;18.12
27826;BMP280;15077;49.704;9.908;2023-05-10T05:27:32;97584.00;;;18.13
27826;BMP280;15077;49.704;9.908;2023-05-10T05:29:58;97582.28;;;18.13
27826;BMP280;15077;49.704;9.908;2023-05-10T05:32:25;97580.50;;;18.14
27826;BMP280;15077;49.704;9.908;2023-05-10T05:34:51;97580.28;;;18.17
27826;BMP280;15077;49.704;9.908;2023-05-10T05:37:19;97586.13;;;18.19
27826;BMP280;15077;49.704;9.908;2023-05-10T05:39:45;97584.91;;;18.23
27826;BMP280;15077;49.704;9.908;2023-05-10T05:42:12;97579.56;;;18.26
27826;BMP280;15077;49.704;9.908;2023-05-10T05:44:39;97590.41;;;18.29
27826;BMP280;15077;49.704;9.908;2023-05-10T05:47:05;97585.84;;;18.33
27826;BMP280;15077;49.704;9.908;2023-05-10T05:49:32;97589.09;;;18.35
27826;BMP280;15077;49.704;9.908;2023-05-10T05:52:04;97598.31;;;18.37
27826;BMP280;15077;49.704;9.908;2023-05-10T05:54:31;97597.50;;;18.37
27826;BMP280;15077;49.704;9.908;2023-05-10T05:56:58;97600.75;;;18.39
27826;BMP280;15077;49.704;9.908;2023-05-10T05:59:24;97608.31;;;18.40
27826;BMP280;15077;49.704;9.908;2023-05-10T06:01:50;97610.19;;;18.38
27826;BMP280;15077;49.704;9.908;2023-05-10T06:04:16;97609.25;;;18.39
27826;BMP280;15077;49.704;9.908;2023-05-10T06:06:42;97608.31;;;18.40
27826;BMP280;15077;49.704;9.908;2023-05-10T06:09:09;97612.41;;;18.43
27826;BMP280;15077;49.704;9.908;2023-05-10T06:11:35;97618.22;;;18.45
27826;BMP280;15077;49.704;9.908;2023-05-10T06:14:01;97612.97;;;18.46
27826;BMP280;15077;49.704;9.908;2023-05-10T06:16:29;97617.06;;;18.48
27826;BMP280;15077;49.704;9.908;2023-05-10T06:18:54;97622.75;;;18.52
27826;BMP280;15077;49.704;9.908;2023-05-10T06:21:20;97619.13;;;18.54
27826;BMP280;15077;49.704;9.908;2023-05-10T06:23:46;97621.47;;;18.57
27826;BMP280;15077;49.704;9.908;2023-05-10T06:26:12;97627.41;;;18.58
27826;BMP280;15077;49.704;9.908;2023-05-10T06:28:39;97618.09;;;18.57
27826;BMP280;15077;49.704;9.908;2023-05-10T06:31:06;97623.09;;;18.58
27826;BMP280;15077;49.704;9.908;2023-05-10T06:33:32;97619.56;;;18.59
27826;BMP280;15077;49.704;9.908;2023-05-10T06:35:58;97625.41;;;18.61
27826;BMP280;15077;49.704;9.908;2023-05-10T06:38:24;97625.41;;;18.61
27826;BMP280;15077;49.704;9.908;2023-05-10T06:40:50;97624.47;;;18.62
27826;BMP280;15077;49.704;9.908;2023-05-10T06:43:16;97627.75;;;18.64
27826;BMP280;15077;49.704;9.908;2023-05-10T06:45:42;97631.00;;;18.66
27826;BMP280;15077;49.704;9.908;2023-05-10T06:48:08;97637.53;;;18.70
27826;BMP280;15077;49.704;9.908;2023-05-10T06:50:34;97627.81;;;18.74
27826;BMP280;15077;49.704;9.908;2023-05-10T06:53:00;97635.28;;;18.77
27826;BMP280;15077;49.704;9.908;2023-05-10T06:55:27;97634.91;;;18.81
27826;BMP280;15077;49.704;9.908;2023-05-10T06:57:54;97632.09;;;18.84
27826;BMP280;15077;49.704;9.908;2023-05-10T07:00:19;97631.84;;;18.87
27826;BMP280;15077;49.704;9.908;2023-05-10T07:02:46;97628.22;;;18.90
27826;BMP280;15077;49.704;9.908;2023-05-10T07:05:12;97628.78;;;18.93
27826;BMP280;15077;49.704;9.908;2023-05-10T07:07:38;97632.72;;;18.97
27826;BMP280;15077;49.704;9.908;2023-05-10T07:10:05;97631.56;;;19.01
27826;BMP280;15077;49.704;9.908;2023-05-10T07:12:32;97635.66;;;19.03
27826;BMP280;15077;49.704;9.908;2023-05-10T07:14:58;97636.91;;;19.09
27826;BMP280;15077;49.704;9.908;2023-05-10T07:17:24;97629.75;;;19.12
27826;BMP280;15077;49.704;9.908;2023-05-10T07:19:50;97638.97;;;19.15
27826;BMP280;15077;49.704;9.908;2023-05-10T07:22:16;97646.56;;;19.16
27826;BMP280;15077;49.704;9.908;2023-05-10T07:24:42;97641.41;;;19.16
27826;BMP280;15077;49.704;9.908;2023-05-10T07:27:08;97652.50;;;19.17
27826;BMP280;15077;49.704;9.908;2023-05-10T07:29:35;97655.78;;;19.19
27826;BMP280;15077;49.704;9.908;2023-05-10T07:32:01;97650.66;;;19.19
27826;BMP280;15077;49.704;9.908;2023-05-10T07:34:27;97654.81;;;19.20
27826;BMP280;15077;49.704;9.908;2023-05-10T07:36:53;97647.56;;;19.25
27826;BMP280;15077;49.704;9.908;2023-05-10T07:39:19;97648.25;;;19.27
27826;BMP280;15077;49.704;9.908;2023-05-10T07:41:46;97648.81;;;19.30
27826;BMP280;15077;49.704;9.908;2023-05-10T07:44:12;97651.13;;;19.33
27826;BMP280;15077;49.704;9.908;2023-05-10T07:46:38;97645.06;;;19.34
27826;BMP280;15077;49.704;9.908;2023-05-10T07:49:04;97644.00;;;19.37
27826;BMP280;15077;49.704;9.908;2023-05-10T07:51:30;97647.25;;;19.39
27826;BMP280;15077;49.704;9.908;2023-05-10T07:53:55;97650.53;;;19.41
27826;BMP280;15077;49.704;9.908;2023-05-10T07:56:29;97652.72;;;19.45
27826;BMP280;15077;49.704;9.908;2023-05-10T07:58:56;97659.34;;;19.47
27826;BMP280;15077;49.704;9.908;2023-05-10T08:01:22;97653.81;;;19.52
27826;BMP280;15077;49.704;9.908;2023-05-10T08:03:48;97662.09;;;19.55
27826;BMP280;15077;49.704;9.908;2023-05-10T08:06:19;97660.09;;;19.59
27826;BMP280;15077;49.704;9.908;2023-05-10T08:08:49;97670.13;;;19.62
27826;BMP280;15077;49.704;9.908;2023-05-10T08:11:17;97676.78;;;19.64
27826;BMP280;15077;49.704;9.908;2023-05-10T08:13:44;97672.31;;;19.66
27826;BMP280;15077;49.704;9.908;2023-05-10T08:16:10;97668.81;;;19.67
27826;BMP280;15077;49.704;9.908;2023-05-10T08:18:36;97666.91;;;19.69
27826;BMP280;15077;49.704;9.908;2023-05-10T08:21:02;97680.06;;;19.76
27826;BMP280;15077;49.704;9.908;2023-05-10T08:23:28;97683.22;;;19.79
27826;BMP280;15077;49.704;9.908;2023-05-10T08:25:54;97674.97;;;19.85
27826;BMP280;15077;49.704;9.908;2023-05-10T08:28:19;97675.44;;;19.90
27826;BMP280;15077;49.704;9.908;2023-05-10T08:30:45;97685.47;;;19.93
27826;BMP280;15077;49.704;9.908;2023-05-10T08:33:11;97680.31;;;19.93
27826;BMP280;15077;49.704;9.908;2023-05-10T08:35:37;97691.31;;;19.95
27826;BMP280;15077;49.704;9.908;2023-05-10T08:38:02;97688.03;;;19.93
27826;BMP280;15077;49.704;9.908;2023-05-10T08:40:28;97683.84;;;19.92
27826;BMP280;15077;49.704;9.908;2023-05-10T08:43:07;97694.13;;;19.92
27826;BMP280;15077;49.704;9.908;2023-05-10T08:45:38;97694.94;;;19.93
27826;BMP280;15077;49.704;9.908;2023-05-10T08:48:10;97689.81;;;19.93
27826;BMP280;15077;49.704;9.908;2023-05-10T08:50:38;97693.19;;;19.93
27826;BMP280;15077;49.704;9.908;2023-05-10T08:53:11;97690.47;;;19.95
27826;BMP280;15077;49.704;9.908;2023-05-10T08:55:38;97691.19;;;19.97
27826;BMP280;15077;49.704;9.908;2023-05-10T08:58:06;97695.94;;;20.01
27826;BMP280;15077;49.704;9.908;2023-05-10T09:00:32;97698.81;;;20.07
27826;BMP280;15077;49.704;9.908;2023-05-10T09:02:59;97696.63;;;20.12
27826;BMP280;15077;49.704;9.908;2023-05-10T09:05:26;97704.81;;;20.17
27826;BMP280;15077;49.704;9.908;2023-05-10T09:07:52;97701.84;;;20.22
27826;BMP280;15077;49.704;9.908;2023-05-10T09:10:19;97713.25;;;20.29
27826;BMP280;15077;49.704;9.908;2023-05-10T09:12:46;97707.84;;;20.32
27826;BMP280;15077;49.704;9.908;2023-05-10T09:15:15;97710.84;;;20.37
27826;BMP280;15077;49.704;9.908;2023-05-10T09:17:43;97714.06;;;20.39
27826;BMP280;15077;49.704;9.908;2023-05-10T09:20:10;97712.22;;;20.41
27826;BMP280;15077;49.704;9.908;2023-05-10T09:22:36;97718.03;;;20.43
27826;BMP280;15077;49.704;9.908;2023-05-10T09:25:05;97716.84;;;20.46
27826;BMP280;15077;49.704;9.908;2023-05-10T09:27:32;97720.09;;;20.48
27826;BMP280;15077;49.704;9.908;2023-05-10T09:29:57;97720.63;;;20.52
27826;BMP280;15077;49.704;9.908;2023-05-10T09:32:40;97720.63;;;20.52
27826;BMP280;15077;49.704;9.908;2023-05-10T09:35:11;97718.50;;;20.57
27826;BMP280;15077;49.704;9.908;2023-05-10T09:37:40;97716.44;;;20.60
27826;BMP280;15077;49.704;9.908;2023-05-10T09:40:16;97711.97;;;20.62
27826;BMP280;15077;49.704;9.908;2023-05-10T09:45:33;97710.97;;;20.74
27826;BMP280;15077;49.704;9.908;2023-05-10T09:48:01;97705.16;;;20.82
27826;BMP280;15077;49.704;9.908;2023-05-10T09:50:29;97709.50;;;20.91
27826;BMP280;15077;49.704;9.908;2023-05-10T09:52:58;97712.06;;;21.00
27826;BMP280;15077;49.704;9.908;2023-05-10T09:55:42;97702.88;;;21.07
27826;BMP280;15077;49.704;9.908;2023-05-10T09:58:13;97709.91;;;21.14
27826;BMP280;15077;49.704;9.908;2023-05-10T10:00:42;97711.81;;;21.22
27826;BMP280;15077;49.704;9.908;2023-05-10T10:03:17;97715.63;;;21.27
27826;BMP280;15077;49.704;9.908;2023-05-10T10:05:44;97711.00;;;21.31
27826;BMP280;15077;49.704;9.908;2023-05-10T10:08:12;97714.09;;;21.34
27826;BMP280;15077;49.704;9.908;2023-05-10T10:10:38;97717.38;;;21.36
27826;BMP280;15077;49.704;9.908;2023-05-10T10:13:06;97721.56;;;21.37
27826;BMP280;15077;49.704;9.908;2023-05-10T10:15:34;97708.53;;;21.39
27826;BMP280;15077;49.704;9.908;2023-05-10T10:18:00;97712.75;;;21.40
27826;BMP280;15077;49.704;9.908;2023-05-10T10:20:28;97712.34;;;21.44
27826;BMP280;15077;49.704;9.908;2023-05-10T10:22:53;97708.00;;;21.44
27826;BMP280;15077;49.704;9.908;2023-05-10T10:25:20;97712.91;;;21.47
27826;BMP280;15077;49.704;9.908;2023-05-10T10:28:19;97718.31;;;21.44
27826;BMP280;15077;49.704;9.908;2023-05-10T10:30:51;97718.75;;;21.49
27826;BMP280;15077;49.704;9.908;2023-05-10T10:33:40;97717.50;;;21.44
27826;BMP280;15077;49.704;9.908;2023-05-10T10:36:09;97718.06;;;21.47
27826;BMP280;15077;49.704;9.908;2023-05-10T10:38:54;97716.03;;;21.51
27826;BMP280;15077;49.704;9.908;2023-05-10T10:57:45;97724.38;;;21.81
27826;BMP280;15077;49.704;9.908;2023-05-10T11:00:28;97710.28;;;21.85
27826;BMP280;15077;49.704;9.908;2023-05-10T11:05:41;97707.78;;;21.93
27826;BMP280;15077;49.704;9.908;2023-05-10T11:13:41;97708.94;;;22.17
27826;BMP280;15077;49.704;9.908;2023-05-10T11:16:16;97706.22;;;22.19
27826;BMP280;15077;49.704;9.908;2023-05-10T11:21:29;97707.03;;;22.29
27826;BMP280;15077;49.704;9.908;2023-05-10T11:23:57;97701.28;;;22.35
27826;BMP280;15077;49.704;9.908;2023-05-10T11:26:35;97709.41;;;22.40
27826;BMP280;15077;49.704;9.908;2023-05-10T11:29:01;97705.59;;;22.43
27826;BMP280;15077;49.704;9.908;2023-05-10T11:31:28;97705.97;;;22.48
27826;BMP280;15077;49.704;9.908;2023-05-10T11:33:57;97704.72;;;22.52
27826;BMP280;15077;49.704;9.908;2023-05-10T11:36:34;97706.88;;;22.57
27826;BMP280;15077;49.704;9.908;2023-05-10T11:39:00;97705.78;;;22.59
27826;BMP280;15077;49.704;9.908;2023-05-10T11:41:29;97714.72;;;22.65
27826;BMP280;15077;49.704;9.908;2023-05-10T11:43:57;97709.25;;;22.68
27826;BMP280;15077;49.704;9.908;2023-05-10T11:46:27;97718.78;;;22.67
27826;BMP280;15077;49.704;9.908;2023-05-10T11:48:59;97711.03;;;22.67
27826;BMP280;15077;49.704;9.908;2023-05-10T11:51:27;97719.44;;;22.69
27826;BMP280;15077;49.704;9.908;2023-05-10T11:53:55;97712.66;;;22.68
27826;BMP280;15077;49.704;9.908;2023-05-10T11:56:21;97708.16;;;22.70
27826;BMP280;15077;49.704;9.908;2023-05-10T11:58:56;97703.94;;;22.69
27826;BMP280;15077;49.704;9.908;2023-05-10T12:01:24;97715.63;;;22.73
27826;BMP280;15077;49.704;9.908;2023-05-10T12:03:53;97712.09;;;22.74
27826;BMP280;15077;49.704;9.908;2023-05-10T12:06:20;97716.97;;;22.77
27826;BMP280;15077;49.704;9.908;2023-05-10T12:08:48;97711.66;;;22.79
27826;BMP280;15077;49.704;9.908;2023-05-10T12:11:16;97710.53;;;22.81
27826;BMP280;15077;49.704;9.908;2023-05-10T12:14:04;97710.25;;;22.84
27826;BMP280;15077;49.704;9.908;2023-05-10T12:16:35;97715.25;;;22.86
27826;BMP280;15077;49.704;9.908;2023-05-10T12:19:01;97717.84;;;22.86
27826;BMP280;15077;49.704;9.908;2023-05-10T12:21:29;97717.03;;;22.85
27826;BMP280;15077;49.704;9.908;2023-05-10T12:24:02;97712.38;;;22.89
27826;BMP280;15077;49.704;9.908;2023-05-10T12:26:29;97716.19;;;22.94
27826;BMP280;15077;49.704;9.908;2023-05-10T12:29:12;97720.13;;;22.98
27826;BMP280;15077;49.704;9.908;2023-05-10T12:31:57;97735.47;;;22.99
27826;BMP280;15077;49.704;9.908;2023-05-10T12:34:31;97748.00;;;22.94
27826;BMP280;15077;49.704;9.908;2023-05-10T12:36:57;97753.50;;;22.82
27826;BMP280;15077;49.704;9.908;2023-05-10T12:39:24;97755.59;;;22.69
27826;BMP280;15077;49.704;9.908;2023-05-10T12:41:51;97766.44;;;22.55
27826;BMP280;15077;49.704;9.908;2023-05-10T12:44:18;97761.56;;;22.43
27826;BMP280;15077;49.704;9.908;2023-05-10T12:46:43;97765.44;;;22.30
27826;BMP280;15077;49.704;9.908;2023-05-10T12:49:09;97764.94;;;22.17
27826;BMP280;15077;49.704;9.908;2023-05-10T12:51:36;97766.03;;;22.05
27826;BMP280;15077;49.704;9.908;2023-05-10T12:54:03;97768.09;;;21.92
27826;BMP280;15077;49.704;9.908;2023-05-10T12:56:32;97769.88;;;21.82
27826;BMP280;15077;49.704;9.908;2023-05-10T12:58:58;97774.22;;;21.72
27826;BMP280;15077;49.704;9.908;2023-05-10T13:01:24;97773.56;;;21.61
27826;BMP280;15077;49.704;9.908;2023-05-10T13:03:49;97772.63;;;21.52
27826;BMP280;15077;49.704;9.908;2023-05-10T13:06:16;97775.03;;;21.44
27826;BMP280;15077;49.704;9.908;2023-05-10T13:08:41;97779.94;;;21.38
27826;BMP280;15077;49.704;9.908;2023-05-10T13:11:07;97788.06;;;21.34
27826;BMP280;15077;49.704;9.908;2023-05-10T13:13:33;97795.25;;;21.30
27826;BMP280;15077;49.704;9.908;2023-05-10T13:15:59;97788.59;;;21.28
27826;BMP280;15077;49.704;9.908;2023-05-10T13:18:24;97787.09;;;21.25
27826;BMP280;15077;49.704;9.908;2023-05-10T13:20:51;97794.97;;;21.24
27826;BMP280;15077;49.704;9.908;2023-05-10T13:23:17;97786.56;;;21.22
27826;BMP280;15077;49.704;9.908;2023-05-10T13:25:43;97794.56;;;21.19
27826;BMP280;15077;49.704;9.908;2023-05-10T13:28:08;97789.53;;;21.17
27826;BMP280;15077;49.704;9.908;2023-05-10T13:30:34;97786.25;;;21.15
27826;BMP280;15077;49.704;9.908;2023-05-10T13:33:00;97783.00;;;21.13
27826;BMP280;15077;49.704;9.908;2023-05-10T13:35:26;97788.16;;;21.13
27826;BMP280;15077;49.704;9.908;2023-05-10T13:37:51;97798.34;;;21.15
27826;BMP280;15077;49.704;9.908;2023-05-10T13:40:18;97801.59;;;21.17
27826;BMP280;15077;49.704;9.908;2023-05-10T13:42:44;97792.94;;;21.18
27826;BMP280;15077;49.704;9.908;2023-05-10T13:45:10;97791.06;;;21.20
27826;BMP280;15077;49.704;9.908;2023-05-10T13:47:38;97789.13;;;21.22
27826;BMP280;15077;49.704;9.908;2023-05-10T13:50:04;97790.66;;;21.24
27826;BMP280;15077;49.704;9.908;2023-05-10T13:52:30;97790.38;;;21.27
27826;BMP280;15077;49.704;9.908;2023-05-10T13:54:56;97786.69;;;21.30
27826;BMP280;15077;49.704;9.908;2023-05-10T13:57:22;97779.66;;;21.32
27826;BMP280;15077;49.704;9.908;2023-05-10T13:59:49;97782.91;;;21.34
27826;BMP280;15077;49.704;9.908;2023-05-10T14:02:15;97781.00;;;21.36
27826;BMP280;15077;49.704;9.908;2023-05-10T14:04:41;97780.88;;;21.37
27826;BMP280;15077;49.704;9.908;2023-05-10T14:07:07;97785.09;;;21.38
27826;BMP280;15077;49.704;9.908;2023-05-10T14:09:32;97779.78;;;21.40
27826;BMP280;15077;49.704;9.908;2023-05-10T14:11:58;97778.00;;;21.40
27826;BMP280;15077;49.704;9.908;2023-05-10T14:14:24;97777.75;;;21.43
27826;BMP280;15077;49.704;9.908;2023-05-10T14:16:50;97778.34;;;21.46
27826;BMP280;15077;49.704;9.908;2023-05-10T14:19:16;97786.47;;;21.51
27826;BMP280;15077;49.704;9.908;2023-05-10T14:21:41;97773.97;;;21.56
27826;BMP280;15077;49.704;9.908;2023-05-10T14:24:08;97769.50;;;21.58
27826;BMP280;15077;49.704;9.908;2023-05-10T14:26:34;97779.28;;;21.64
27826;BMP280;15077;49.704;9.908;2023-05-10T14:29:00;97775.63;;;21.67
27826;BMP280;15077;49.704;9.908;2023-05-10T14:31:26;97769.34;;;21.69
27826;BMP280;15077;49.704;9.908;2023-05-10T14:33:52;97780.22;;;21.73
27826;BMP280;15077;49.704;9.908;2023-05-10T14:36:18;97768.78;;;21.75
27826;BMP280;15077;49.704;9.908;2023-05-10T14:38:44;97775.31;;;21.79
27826;BMP280;15077;49.704;9.908;2023-05-10T14:41:09;97775.97;;;21.81
27826;BMP280;15077;49.704;9.908;2023-05-10T14:43:39;97777.47;;;21.84
27826;BMP280;15077;49.704;9.908;2023-05-10T14:46:05;97770.41;;;21.86
27826;BMP280;15077;49.704;9.908;2023-05-10T14:48:31;97772.06;;;21.87
27826;BMP280;15077;49.704;9.908;2023-05-10T14:50:57;97774.50;;;21.88
27826;BMP280;15077;49.704;9.908;2023-05-10T14:53:23;97782.22;;;21.88